sensor_id;sensor_type;location;lat;lon;timestamp;P1;durP1;ratioP1;P2;durP2;ratioP2
7807;SDS011;3949;49.254;8.894;2023-12-29T00:02:15;2.80;;;2.60;;
7807;SDS011;3949;49.254;8.894;2023-12-29T00:04:41;3.70;;;2.90;;
7807;SDS011;3949;49.254;8.894;2023-12-29T00:07:07;2.60;;;2.33;;
7807;SDS011;3949;49.254;8.894;2023-12-29T00:09:33;4.10;;;2.90;;
7807;SDS011;3949;49.254;8.894;2023-12-29T00:12:05;3.70;;;3.17;;
7807;SDS011;3949;49.254;8.894;2023-12-29T00:14:31;3.30;;;3.00;;
7807;SDS011;3949;49.254;8.894;2023-12-29T00:16:57;3.43;;;3.13;;
7807;SDS011;3949;49.254;8.894;2023-12-29T00:19:24;3.93;;;3.23;;
7807;SDS011;3949;49.254;8.894;2023-12-29T00:21:50;3.83;;;3.20;;
7807;SDS011;3949;49.254;8.894;2023-12-29T00:24:16;3.57;;;3.27;;
7807;SDS011;3949;49.254;8.894;2023-12-29T00:26:42;3.63;;;3.03;;
7807;SDS011;3949;49.254;8.894;2023-12-29T00:29:08;3.87;;;3.00;;
7807;SDS011;3949;49.254;8.894;2023-12-29T00:31:34;3.63;;;3.10;;
7807;SDS011;3949;49.254;8.894;2023-12-29T00:34:00;3.80;;;3.40;;
7807;SDS011;3949;49.254;8.894;2023-12-29T00:36:26;3.50;;;3.20;;
7807;SDS011;3949;49.254;8.894;2023-12-29T00:38:52;3.97;;;3.20;;
7807;SDS011;3949;49.254;8.894;2023-12-29T00:41:18;4.10;;;3.17;;
7807;SDS011;3949;49.254;8.894;2023-12-29T00:43:44;3.90;;;3.50;;
7807;SDS011;3949;49.254;8.894;2023-12-29T00:46:10;3.80;;;3.50;;
7807;SDS011;3949;49.254;8.894;2023-12-29T00:48:40;3.60;;;3.30;;
7807;SDS011;3949;49.254;8.894;2023-12-29T00:51:06;3.73;;;3.43;;
7807;SDS011;3949;49.254;8.894;2023-12-29T00:53:34;4.27;;;3.60;;
7807;SDS011;3949;49.254;8.894;2023-12-29T00:56:00;3.60;;;3.30;;
7807;SDS011;3949;49.254;8.894;2023-12-29T00:58:26;5.40;;;4.00;;
7807;SDS011;3949;49.254;8.894;2023-12-29T01:00:52;3.50;;;3.20;;
7807;SDS011;3949;49.254;8.894;2023-12-29T01:03:18;3.70;;;3.30;;
7807;SDS011;3949;49.254;8.894;2023-12-29T01:05:45;3.70;;;3.37;;
7807;SDS011;3949;49.254;8.894;2023-12-29T01:08:11;3.80;;;3.40;;
7807;SDS011;3949;49.254;8.894;2023-12-29T01:10:37;4.33;;;3.27;;
7807;SDS011;3949;49.254;8.894;2023-12-29T01:13:03;4.40;;;3.47;;
7807;SDS011;3949;49.254;8.894;2023-12-29T01:15:29;3.87;;;3.47;;
7807;SDS011;3949;49.254;8.894;2023-12-29T01:17:55;5.40;;;3.50;;
7807;SDS011;3949;49.254;8.894;2023-12-29T01:20:21;5.37;;;3.20;;
7807;SDS011;3949;49.254;8.894;2023-12-29T01:22:47;3.63;;;3.10;;
7807;SDS011;3949;49.254;8.894;2023-12-29T01:25:13;3.10;;;2.90;;
7807;SDS011;3949;49.254;8.894;2023-12-29T01:27:39;4.37;;;3.60;;
7807;SDS011;3949;49.254;8.894;2023-12-29T01:30:05;3.47;;;3.17;;
7807;SDS011;3949;49.254;8.894;2023-12-29T01:32:31;3.80;;;3.50;;
7807;SDS011;3949;49.254;8.894;2023-12-29T01:34:57;5.27;;;4.27;;
7807;SDS011;3949;49.254;8.894;2023-12-29T01:37:23;3.67;;;3.37;;
7807;SDS011;3949;49.254;8.894;2023-12-29T01:39:49;4.17;;;3.70;;
7807;SDS011;3949;49.254;8.894;2023-12-29T01:42:15;3.80;;;3.50;;
7807;SDS011;3949;49.254;8.894;2023-12-29T01:44:41;4.80;;;3.33;;
7807;SDS011;3949;49.254;8.894;2023-12-29T01:47:10;3.70;;;3.40;;
7807;SDS011;3949;49.254;8.894;2023-12-29T01:49:37;4.83;;;3.33;;
7807;SDS011;3949;49.254;8.894;2023-12-29T01:52:03;3.53;;;3.23;;
7807;SDS011;3949;49.254;8.894;2023-12-29T01:54:31;4.13;;;3.70;;
7807;SDS011;3949;49.254;8.894;2023-12-29T01:56:58;3.87;;;3.47;;
7807;SDS011;3949;49.254;8.894;2023-12-29T01:59:25;3.70;;;3.40;;
7807;SDS011;3949;49.254;8.894;2023-12-29T02:01:51;3.50;;;3.20;;
7807;SDS011;3949;49.254;8.894;2023-12-29T02:04:17;4.33;;;3.93;;
7807;SDS011;3949;49.254;8.894;2023-12-29T02:06:43;4.40;;;3.70;;
7807;SDS011;3949;49.254;8.894;2023-12-29T02:09:09;5.00;;;4.10;;
7807;SDS011;3949;49.254;8.894;2023-12-29T02:11:37;4.13;;;3.70;;
7807;SDS011;3949;49.254;8.894;2023-12-29T02:14:03;4.57;;;3.60;;
7807;SDS011;3949;49.254;8.894;2023-12-29T02:21:57;4.20;;;3.80;;
7807;SDS011;3949;49.254;8.894;2023-12-29T02:24:23;6.00;;;4.20;;
7807;SDS011;3949;49.254;8.894;2023-12-29T02:26:50;4.83;;;3.43;;
7807;SDS011;3949;49.254;8.894;2023-12-29T02:29:18;4.33;;;3.73;;
7807;SDS011;3949;49.254;8.894;2023-12-29T02:31:45;5.23;;;4.40;;
7807;SDS011;3949;49.254;8.894;2023-12-29T02:34:13;5.30;;;4.27;;
7807;SDS011;3949;49.254;8.894;2023-12-29T02:36:39;4.60;;;4.20;;
7807;SDS011;3949;49.254;8.894;2023-12-29T02:39:08;5.13;;;4.47;;
7807;SDS011;3949;49.254;8.894;2023-12-29T02:41:34;4.27;;;3.87;;
7807;SDS011;3949;49.254;8.894;2023-12-29T02:44:00;5.33;;;4.13;;
7807;SDS011;3949;49.254;8.894;2023-12-29T02:46:26;4.70;;;4.00;;
7807;SDS011;3949;49.254;8.894;2023-12-29T02:48:52;4.50;;;4.10;;
7807;SDS011;3949;49.254;8.894;2023-12-29T02:51:18;4.80;;;4.20;;
7807;SDS011;3949;49.254;8.894;2023-12-29T02:53:44;4.40;;;3.80;;
7807;SDS011;3949;49.254;8.894;2023-12-29T02:56:10;4.63;;;4.23;;
7807;SDS011;3949;49.254;8.894;2023-12-29T02:58:36;4.30;;;3.90;;
7807;SDS011;3949;49.254;8.894;2023-12-29T03:01:02;5.10;;;4.10;;
7807;SDS011;3949;49.254;8.894;2023-12-29T03:03:28;4.77;;;4.00;;
7807;SDS011;3949;49.254;8.894;2023-12-29T03:05:54;4.97;;;4.50;;
7807;SDS011;3949;49.254;8.894;2023-12-29T03:08:20;4.77;;;4.27;;
7807;SDS011;3949;49.254;8.894;2023-12-29T03:10:46;4.43;;;4.03;;
7807;SDS011;3949;49.254;8.894;2023-12-29T03:13:12;3.93;;;3.53;;
7807;SDS011;3949;49.254;8.894;2023-12-29T03:15:38;4.53;;;4.10;;
7807;SDS011;3949;49.254;8.894;2023-12-29T03:18:04;4.30;;;3.83;;
7807;SDS011;3949;49.254;8.894;2023-12-29T03:20:30;5.37;;;4.20;;
7807;SDS011;3949;49.254;8.894;2023-12-29T03:22:56;5.50;;;3.67;;
7807;SDS011;3949;49.254;8.894;2023-12-29T03:25:22;4.77;;;3.40;;
7807;SDS011;3949;49.254;8.894;2023-12-29T03:27:48;4.27;;;3.67;;
7807;SDS011;3949;49.254;8.894;2023-12-29T03:30:14;4.20;;;3.80;;
7807;SDS011;3949;49.254;8.894;2023-12-29T03:32:40;3.87;;;3.43;;
7807;SDS011;3949;49.254;8.894;2023-12-29T03:35:06;3.90;;;3.43;;
7807;SDS011;3949;49.254;8.894;2023-12-29T03:37:32;3.63;;;3.33;;
7807;SDS011;3949;49.254;8.894;2023-12-29T03:39:58;3.93;;;3.30;;
7807;SDS011;3949;49.254;8.894;2023-12-29T03:42:24;3.20;;;2.90;;
7807;SDS011;3949;49.254;8.894;2023-12-29T03:44:50;3.57;;;3.27;;
7807;SDS011;3949;49.254;8.894;2023-12-29T03:47:16;3.67;;;3.30;;
7807;SDS011;3949;49.254;8.894;2023-12-29T03:49:42;4.80;;;3.10;;
7807;SDS011;3949;49.254;8.894;2023-12-29T03:52:08;3.60;;;3.20;;
7807;SDS011;3949;49.254;8.894;2023-12-29T03:54:33;3.07;;;2.83;;
7807;SDS011;3949;49.254;8.894;2023-12-29T03:57:00;3.07;;;2.87;;
7807;SDS011;3949;49.254;8.894;2023-12-29T03:59:26;3.67;;;2.80;;
7807;SDS011;3949;49.254;8.894;2023-12-29T04:01:52;4.53;;;3.07;;
7807;SDS011;3949;49.254;8.894;2023-12-29T04:04:19;3.40;;;3.10;;
7807;SDS011;3949;49.254;8.894;2023-12-29T04:06:45;4.47;;;3.33;;
7807;SDS011;3949;49.254;8.894;2023-12-29T04:09:11;4.47;;;3.53;;
7807;SDS011;3949;49.254;8.894;2023-12-29T04:11:37;3.10;;;2.80;;
7807;SDS011;3949;49.254;8.894;2023-12-29T04:14:03;3.37;;;3.07;;
7807;SDS011;3949;49.254;8.894;2023-12-29T04:16:29;3.20;;;2.70;;
7807;SDS011;3949;49.254;8.894;2023-12-29T04:18:55;3.70;;;2.87;;
7807;SDS011;3949;49.254;8.894;2023-12-29T04:21:21;4.10;;;3.00;;
7807;SDS011;3949;49.254;8.894;2023-12-29T04:23:47;3.07;;;2.77;;
7807;SDS011;3949;49.254;8.894;2023-12-29T04:26:13;2.83;;;2.50;;
7807;SDS011;3949;49.254;8.894;2023-12-29T04:28:39;2.70;;;2.50;;
7807;SDS011;3949;49.254;8.894;2023-12-29T04:31:05;2.40;;;2.20;;
7807;SDS011;3949;49.254;8.894;2023-12-29T04:33:31;2.83;;;2.53;;
7807;SDS011;3949;49.254;8.894;2023-12-29T04:35:57;3.00;;;2.40;;
7807;SDS011;3949;49.254;8.894;2023-12-29T04:38:23;2.50;;;2.30;;
7807;SDS011;3949;49.254;8.894;2023-12-29T04:40:49;2.63;;;2.13;;
7807;SDS011;3949;49.254;8.894;2023-12-29T04:43:15;2.53;;;2.20;;
7807;SDS011;3949;49.254;8.894;2023-12-29T04:45:41;2.33;;;2.13;;
7807;SDS011;3949;49.254;8.894;2023-12-29T04:48:07;2.80;;;2.50;;
7807;SDS011;3949;49.254;8.894;2023-12-29T04:50:32;2.53;;;2.30;;
7807;SDS011;3949;49.254;8.894;2023-12-29T04:52:58;3.37;;;2.33;;
7807;SDS011;3949;49.254;8.894;2023-12-29T04:55:24;3.33;;;2.47;;
7807;SDS011;3949;49.254;8.894;2023-12-29T04:57:50;2.37;;;2.17;;
7807;SDS011;3949;49.254;8.894;2023-12-29T05:00:17;2.40;;;2.20;;
7807;SDS011;3949;49.254;8.894;2023-12-29T05:02:43;2.70;;;2.10;;
7807;SDS011;3949;49.254;8.894;2023-12-29T05:05:09;2.57;;;2.23;;
7807;SDS011;3949;49.254;8.894;2023-12-29T05:07:35;2.50;;;2.30;;
7807;SDS011;3949;49.254;8.894;2023-12-29T05:10:01;2.50;;;2.20;;
7807;SDS011;3949;49.254;8.894;2023-12-29T05:12:27;2.37;;;2.17;;
7807;SDS011;3949;49.254;8.894;2023-12-29T05:14:53;3.30;;;2.50;;
7807;SDS011;3949;49.254;8.894;2023-12-29T05:17:19;2.60;;;2.40;;
7807;SDS011;3949;49.254;8.894;2023-12-29T05:19:45;2.63;;;2.43;;
7807;SDS011;3949;49.254;8.894;2023-12-29T05:22:11;2.87;;;2.20;;
7807;SDS011;3949;49.254;8.894;2023-12-29T05:24:40;4.27;;;2.47;;
7807;SDS011;3949;49.254;8.894;2023-12-29T05:27:06;2.97;;;2.77;;
7807;SDS011;3949;49.254;8.894;2023-12-29T05:29:32;3.80;;;2.40;;
7807;SDS011;3949;49.254;8.894;2023-12-29T05:31:58;2.60;;;2.40;;
7807;SDS011;3949;49.254;8.894;2023-12-29T05:34:24;2.70;;;2.50;;
7807;SDS011;3949;49.254;8.894;2023-12-29T05:36:50;4.20;;;2.67;;
7807;SDS011;3949;49.254;8.894;2023-12-29T05:39:16;6.17;;;2.77;;
7807;SDS011;3949;49.254;8.894;2023-12-29T05:41:45;2.77;;;2.47;;
7807;SDS011;3949;49.254;8.894;2023-12-29T05:44:11;5.57;;;2.60;;
7807;SDS011;3949;49.254;8.894;2023-12-29T05:46:37;3.03;;;2.73;;
7807;SDS011;3949;49.254;8.894;2023-12-29T05:49:03;2.80;;;2.60;;
7807;SDS011;3949;49.254;8.894;2023-12-29T05:51:29;2.83;;;2.63;;
7807;SDS011;3949;49.254;8.894;2023-12-29T05:53:55;3.77;;;2.83;;
7807;SDS011;3949;49.254;8.894;2023-12-29T05:56:21;4.20;;;2.47;;
7807;SDS011;3949;49.254;8.894;2023-12-29T05:58:47;2.80;;;2.60;;
7807;SDS011;3949;49.254;8.894;2023-12-29T06:01:13;4.43;;;2.97;;
7807;SDS011;3949;49.254;8.894;2023-12-29T06:03:39;4.33;;;2.87;;
7807;SDS011;3949;49.254;8.894;2023-12-29T06:06:05;4.00;;;3.03;;
7807;SDS011;3949;49.254;8.894;2023-12-29T06:08:31;3.00;;;2.70;;
7807;SDS011;3949;49.254;8.894;2023-12-29T06:10:57;2.90;;;2.70;;
7807;SDS011;3949;49.254;8.894;2023-12-29T06:13:23;3.10;;;2.80;;
7807;SDS011;3949;49.254;8.894;2023-12-29T06:15:49;2.80;;;2.60;;
7807;SDS011;3949;49.254;8.894;2023-12-29T06:18:15;3.10;;;2.80;;
7807;SDS011;3949;49.254;8.894;2023-12-29T06:20:41;3.00;;;2.70;;
7807;SDS011;3949;49.254;8.894;2023-12-29T06:23:07;3.47;;;2.80;;
7807;SDS011;3949;49.254;8.894;2023-12-29T06:25:33;3.40;;;3.07;;
7807;SDS011;3949;49.254;8.894;2023-12-29T06:27:59;3.43;;;3.07;;
7807;SDS011;3949;49.254;8.894;2023-12-29T06:30:25;4.50;;;3.03;;
7807;SDS011;3949;49.254;8.894;2023-12-29T06:32:51;3.60;;;3.20;;
7807;SDS011;3949;49.254;8.894;2023-12-29T06:35:17;3.30;;;3.00;;
7807;SDS011;3949;49.254;8.894;2023-12-29T06:37:43;4.00;;;2.90;;
7807;SDS011;3949;49.254;8.894;2023-12-29T06:40:09;3.30;;;3.00;;
7807;SDS011;3949;49.254;8.894;2023-12-29T06:42:35;3.07;;;2.87;;
7807;SDS011;3949;49.254;8.894;2023-12-29T06:45:01;3.57;;;3.13;;
7807;SDS011;3949;49.254;8.894;2023-12-29T06:47:27;4.17;;;3.20;;
7807;SDS011;3949;49.254;8.894;2023-12-29T06:49:53;3.77;;;3.07;;
7807;SDS011;3949;49.254;8.894;2023-12-29T06:52:19;3.50;;;3.20;;
7807;SDS011;3949;49.254;8.894;2023-12-29T06:54:45;3.43;;;3.03;;
7807;SDS011;3949;49.254;8.894;2023-12-29T06:57:11;3.53;;;2.73;;
7807;SDS011;3949;49.254;8.894;2023-12-29T06:59:39;3.30;;;3.00;;
7807;SDS011;3949;49.254;8.894;2023-12-29T07:02:05;3.27;;;2.97;;
7807;SDS011;3949;49.254;8.894;2023-12-29T07:04:31;3.40;;;3.10;;
7807;SDS011;3949;49.254;8.894;2023-12-29T07:06:59;3.40;;;3.00;;
7807;SDS011;3949;49.254;8.894;2023-12-29T07:09:26;4.27;;;3.17;;
7807;SDS011;3949;49.254;8.894;2023-12-29T07:11:52;4.70;;;3.57;;
7807;SDS011;3949;49.254;8.894;2023-12-29T07:14:18;4.30;;;3.40;;
7807;SDS011;3949;49.254;8.894;2023-12-29T07:16:44;3.13;;;2.83;;
7807;SDS011;3949;49.254;8.894;2023-12-29T07:19:10;17.17;;;13.33;;
7807;SDS011;3949;49.254;8.894;2023-12-29T07:21:36;3.83;;;3.50;;
7807;SDS011;3949;49.254;8.894;2023-12-29T07:24:02;4.57;;;3.10;;
7807;SDS011;3949;49.254;8.894;2023-12-29T07:26:33;4.83;;;3.37;;
7807;SDS011;3949;49.254;8.894;2023-12-29T07:28:59;4.17;;;3.10;;
7807;SDS011;3949;49.254;8.894;2023-12-29T07:31:26;4.40;;;3.57;;
7807;SDS011;3949;49.254;8.894;2023-12-29T07:33:51;4.00;;;3.60;;
7807;SDS011;3949;49.254;8.894;2023-12-29T07:36:17;3.30;;;3.00;;
7807;SDS011;3949;49.254;8.894;2023-12-29T07:38:43;11.20;;;7.53;;
7807;SDS011;3949;49.254;8.894;2023-12-29T07:41:09;4.80;;;3.93;;
7807;SDS011;3949;49.254;8.894;2023-12-29T07:43:35;3.97;;;2.90;;
7807;SDS011;3949;49.254;8.894;2023-12-29T07:46:02;3.27;;;2.97;;
7807;SDS011;3949;49.254;8.894;2023-12-29T07:48:28;3.60;;;3.27;;
7807;SDS011;3949;49.254;8.894;2023-12-29T07:51:04;5.17;;;3.57;;
7807;SDS011;3949;49.254;8.894;2023-12-29T07:53:30;3.30;;;3.00;;
7807;SDS011;3949;49.254;8.894;2023-12-29T07:55:56;5.30;;;4.80;;
7807;SDS011;3949;49.254;8.894;2023-12-29T07:58:22;3.20;;;2.90;;
7807;SDS011;3949;49.254;8.894;2023-12-29T08:00:48;4.57;;;2.93;;
7807;SDS011;3949;49.254;8.894;2023-12-29T08:03:14;3.10;;;2.80;;
7807;SDS011;3949;49.254;8.894;2023-12-29T08:05:40;3.57;;;3.17;;
7807;SDS011;3949;49.254;8.894;2023-12-29T08:08:06;6.50;;;4.47;;
7807;SDS011;3949;49.254;8.894;2023-12-29T08:10:32;4.13;;;3.73;;
7807;SDS011;3949;49.254;8.894;2023-12-29T08:12:58;3.33;;;2.90;;
7807;SDS011;3949;49.254;8.894;2023-12-29T08:15:24;3.33;;;3.00;;
7807;SDS011;3949;49.254;8.894;2023-12-29T08:17:50;3.20;;;2.90;;
7807;SDS011;3949;49.254;8.894;2023-12-29T08:20:16;3.60;;;2.90;;
7807;SDS011;3949;49.254;8.894;2023-12-29T08:22:42;4.10;;;3.40;;
7807;SDS011;3949;49.254;8.894;2023-12-29T08:25:08;3.93;;;2.70;;
7807;SDS011;3949;49.254;8.894;2023-12-29T08:27:34;3.10;;;2.90;;
7807;SDS011;3949;49.254;8.894;2023-12-29T08:30:00;2.97;;;2.77;;
7807;SDS011;3949;49.254;8.894;2023-12-29T08:32:27;3.33;;;3.00;;
7807;SDS011;3949;49.254;8.894;2023-12-29T08:34:53;3.37;;;3.07;;
7807;SDS011;3949;49.254;8.894;2023-12-29T08:37:18;2.90;;;2.70;;
7807;SDS011;3949;49.254;8.894;2023-12-29T08:39:45;3.10;;;2.90;;
7807;SDS011;3949;49.254;8.894;2023-12-29T08:42:12;2.90;;;2.70;;
7807;SDS011;3949;49.254;8.894;2023-12-29T08:44:38;3.93;;;2.70;;
7807;SDS011;3949;49.254;8.894;2023-12-29T08:47:04;3.17;;;2.63;;
7807;SDS011;3949;49.254;8.894;2023-12-29T08:49:33;3.20;;;2.90;;
7807;SDS011;3949;49.254;8.894;2023-12-29T08:51:59;5.53;;;3.40;;
7807;SDS011;3949;49.254;8.894;2023-12-29T08:54:28;2.83;;;2.63;;
7807;SDS011;3949;49.254;8.894;2023-12-29T08:56:54;2.60;;;2.40;;
7807;SDS011;3949;49.254;8.894;2023-12-29T08:59:20;3.97;;;2.33;;
7807;SDS011;3949;49.254;8.894;2023-12-29T09:01:46;2.57;;;2.37;;
7807;SDS011;3949;49.254;8.894;2023-12-29T09:04:12;2.40;;;2.20;;
7807;SDS011;3949;49.254;8.894;2023-12-29T09:06:38;2.57;;;2.37;;
7807;SDS011;3949;49.254;8.894;2023-12-29T09:09:04;2.40;;;2.13;;
7807;SDS011;3949;49.254;8.894;2023-12-29T09:11:30;2.23;;;2.03;;
7807;SDS011;3949;49.254;8.894;2023-12-29T09:13:56;2.10;;;2.00;;
7807;SDS011;3949;49.254;8.894;2023-12-29T09:16:22;2.90;;;2.10;;
7807;SDS011;3949;49.254;8.894;2023-12-29T09:18:48;2.33;;;2.13;;
7807;SDS011;3949;49.254;8.894;2023-12-29T09:21:14;2.50;;;2.30;;
7807;SDS011;3949;49.254;8.894;2023-12-29T09:23:40;2.20;;;2.00;;
7807;SDS011;3949;49.254;8.894;2023-12-29T09:26:06;2.33;;;2.13;;
7807;SDS011;3949;49.254;8.894;2023-12-29T09:28:32;2.30;;;2.10;;
7807;SDS011;3949;49.254;8.894;2023-12-29T09:30:59;3.50;;;2.73;;
7807;SDS011;3949;49.254;8.894;2023-12-29T09:33:25;3.93;;;2.70;;
7807;SDS011;3949;49.254;8.894;2023-12-29T09:35:51;2.30;;;2.10;;
7807;SDS011;3949;49.254;8.894;2023-12-29T09:38:18;2.30;;;2.10;;
7807;SDS011;3949;49.254;8.894;2023-12-29T09:40:44;2.30;;;2.10;;
7807;SDS011;3949;49.254;8.894;2023-12-29T09:43:11;2.23;;;2.03;;
7807;SDS011;3949;49.254;8.894;2023-12-29T09:45:38;2.87;;;2.07;;
7807;SDS011;3949;49.254;8.894;2023-12-29T09:48:05;2.77;;;2.13;;
7807;SDS011;3949;49.254;8.894;2023-12-29T09:50:33;2.10;;;1.90;;
7807;SDS011;3949;49.254;8.894;2023-12-29T09:53:00;2.60;;;2.17;;
7807;SDS011;3949;49.254;8.894;2023-12-29T09:55:27;3.17;;;1.80;;
7807;SDS011;3949;49.254;8.894;2023-12-29T09:57:53;2.00;;;1.80;;
7807;SDS011;3949;49.254;8.894;2023-12-29T10:00:20;1.80;;;1.57;;
7807;SDS011;3949;49.254;8.894;2023-12-29T10:02:46;2.00;;;1.80;;
7807;SDS011;3949;49.254;8.894;2023-12-29T10:05:14;1.87;;;1.77;;
7807;SDS011;3949;49.254;8.894;2023-12-29T10:07:41;2.03;;;1.83;;
7807;SDS011;3949;49.254;8.894;2023-12-29T10:10:08;1.57;;;1.47;;
7807;SDS011;3949;49.254;8.894;2023-12-29T10:12:38;2.17;;;1.50;;
7807;SDS011;3949;49.254;8.894;2023-12-29T10:23:11;1.50;;;1.40;;
7807;SDS011;3949;49.254;8.894;2023-12-29T10:25:38;2.10;;;1.90;;
7807;SDS011;3949;49.254;8.894;2023-12-29T10:28:04;1.90;;;1.47;;
7807;SDS011;3949;49.254;8.894;2023-12-29T10:30:31;3.10;;;1.90;;
7807;SDS011;3949;49.254;8.894;2023-12-29T10:32:57;1.97;;;1.87;;
7807;SDS011;3949;49.254;8.894;2023-12-29T10:35:25;3.77;;;3.47;;
7807;SDS011;3949;49.254;8.894;2023-12-29T10:37:51;1.77;;;1.60;;
7807;SDS011;3949;49.254;8.894;2023-12-29T10:40:17;1.70;;;1.60;;
7807;SDS011;3949;49.254;8.894;2023-12-29T10:42:53;1.57;;;1.47;;
7807;SDS011;3949;49.254;8.894;2023-12-29T10:45:20;2.10;;;1.90;;
7807;SDS011;3949;49.254;8.894;2023-12-29T10:47:47;1.87;;;1.77;;
7807;SDS011;3949;49.254;8.894;2023-12-29T10:50:13;2.50;;;1.90;;
7807;SDS011;3949;49.254;8.894;2023-12-29T10:52:39;2.30;;;1.60;;
7807;SDS011;3949;49.254;8.894;2023-12-29T10:57:33;1.80;;;1.30;;
7807;SDS011;3949;49.254;8.894;2023-12-29T10:59:59;2.93;;;2.73;;
7807;SDS011;3949;49.254;8.894;2023-12-29T11:02:26;1.23;;;1.23;;
7807;SDS011;3949;49.254;8.894;2023-12-29T11:05:00;2.80;;;1.50;;
7807;SDS011;3949;49.254;8.894;2023-12-29T11:10:03;1.67;;;1.57;;
7807;SDS011;3949;49.254;8.894;2023-12-29T11:12:30;2.63;;;1.40;;
7807;SDS011;3949;49.254;8.894;2023-12-29T11:14:56;1.00;;;1.00;;
7807;SDS011;3949;49.254;8.894;2023-12-29T11:17:23;1.60;;;1.50;;
7807;SDS011;3949;49.254;8.894;2023-12-29T11:19:50;1.37;;;1.23;;
7807;SDS011;3949;49.254;8.894;2023-12-29T11:22:16;1.67;;;1.40;;
7807;SDS011;3949;49.254;8.894;2023-12-29T11:24:45;3.43;;;1.50;;
7807;SDS011;3949;49.254;8.894;2023-12-29T11:27:12;2.17;;;1.60;;
7807;SDS011;3949;49.254;8.894;2023-12-29T11:29:37;2.67;;;2.40;;
7807;SDS011;3949;49.254;8.894;2023-12-29T11:32:06;1.93;;;1.30;;
7807;SDS011;3949;49.254;8.894;2023-12-29T11:35:02;1.87;;;1.40;;
7807;SDS011;3949;49.254;8.894;2023-12-29T11:39:55;3.20;;;2.17;;
7807;SDS011;3949;49.254;8.894;2023-12-29T11:42:28;1.50;;;1.40;;
7807;SDS011;3949;49.254;8.894;2023-12-29T11:44:56;1.83;;;1.27;;
7807;SDS011;3949;49.254;8.894;2023-12-29T11:47:35;1.17;;;1.07;;
7807;SDS011;3949;49.254;8.894;2023-12-29T11:50:02;1.30;;;1.20;;
7807;SDS011;3949;49.254;8.894;2023-12-29T11:52:35;2.20;;;1.60;;
7807;SDS011;3949;49.254;8.894;2023-12-29T11:55:11;1.67;;;1.50;;
7807;SDS011;3949;49.254;8.894;2023-12-29T11:57:37;2.13;;;1.90;;
7807;SDS011;3949;49.254;8.894;2023-12-29T12:00:06;1.53;;;1.43;;
7807;SDS011;3949;49.254;8.894;2023-12-29T12:02:34;1.37;;;1.27;;
7807;SDS011;3949;49.254;8.894;2023-12-29T12:05:00;1.40;;;1.30;;
7807;SDS011;3949;49.254;8.894;2023-12-29T12:12:44;1.47;;;1.37;;
7807;SDS011;3949;49.254;8.894;2023-12-29T12:15:31;1.47;;;1.37;;
7807;SDS011;3949;49.254;8.894;2023-12-29T12:17:56;1.63;;;1.23;;
7807;SDS011;3949;49.254;8.894;2023-12-29T12:20:23;1.10;;;1.10;;
7807;SDS011;3949;49.254;8.894;2023-12-29T12:23:11;2.30;;;1.40;;
7807;SDS011;3949;49.254;8.894;2023-12-29T12:25:35;1.27;;;1.17;;
7807;SDS011;3949;49.254;8.894;2023-12-29T12:28:05;1.13;;;1.03;;
7807;SDS011;3949;49.254;8.894;2023-12-29T12:30:32;1.23;;;1.20;;
7807;SDS011;3949;49.254;8.894;2023-12-29T12:33:02;1.57;;;1.47;;
7807;SDS011;3949;49.254;8.894;2023-12-29T12:35:29;1.40;;;1.30;;
7807;SDS011;3949;49.254;8.894;2023-12-29T12:40:36;1.77;;;1.67;;
7807;SDS011;3949;49.254;8.894;2023-12-29T12:43:06;1.73;;;1.60;;
7807;SDS011;3949;49.254;8.894;2023-12-29T12:45:33;1.57;;;1.47;;
7807;SDS011;3949;49.254;8.894;2023-12-29T12:48:09;3.53;;;3.07;;
7807;SDS011;3949;49.254;8.894;2023-12-29T12:50:42;1.57;;;1.47;;
7807;SDS011;3949;49.254;8.894;2023-12-29T12:53:09;2.13;;;1.60;;
7807;SDS011;3949;49.254;8.894;2023-12-29T12:55:35;2.20;;;1.50;;
7807;SDS011;3949;49.254;8.894;2023-12-29T12:58:01;2.20;;;1.70;;
7807;SDS011;3949;49.254;8.894;2023-12-29T13:00:27;1.30;;;1.20;;
7807;SDS011;3949;49.254;8.894;2023-12-29T13:02:54;1.50;;;1.40;;
7807;SDS011;3949;49.254;8.894;2023-12-29T13:05:20;1.70;;;1.60;;
7807;SDS011;3949;49.254;8.894;2023-12-29T13:07:47;1.80;;;1.70;;
7807;SDS011;3949;49.254;8.894;2023-12-29T13:10:13;3.33;;;2.77;;
7807;SDS011;3949;49.254;8.894;2023-12-29T13:12:39;1.40;;;1.30;;
7807;SDS011;3949;49.254;8.894;2023-12-29T13:15:06;1.70;;;1.30;;
7807;SDS011;3949;49.254;8.894;2023-12-29T13:17:35;1.33;;;1.23;;
7807;SDS011;3949;49.254;8.894;2023-12-29T13:20:01;2.00;;;1.30;;
7807;SDS011;3949;49.254;8.894;2023-12-29T13:22:29;1.50;;;1.40;;
7807;SDS011;3949;49.254;8.894;2023-12-29T13:24:55;1.40;;;1.30;;
7807;SDS011;3949;49.254;8.894;2023-12-29T13:27:21;1.70;;;1.50;;
7807;SDS011;3949;49.254;8.894;2023-12-29T13:29:47;1.60;;;1.50;;
7807;SDS011;3949;49.254;8.894;2023-12-29T13:32:18;1.70;;;1.60;;
7807;SDS011;3949;49.254;8.894;2023-12-29T13:39:56;1.73;;;1.63;;
7807;SDS011;3949;49.254;8.894;2023-12-29T13:42:23;1.50;;;1.40;;
7807;SDS011;3949;49.254;8.894;2023-12-29T13:44:50;1.80;;;1.27;;
7807;SDS011;3949;49.254;8.894;2023-12-29T13:47:16;2.03;;;1.60;;
7807;SDS011;3949;49.254;8.894;2023-12-29T13:49:43;1.63;;;1.53;;
7807;SDS011;3949;49.254;8.894;2023-12-29T13:52:09;1.67;;;1.57;;
7807;SDS011;3949;49.254;8.894;2023-12-29T13:54:41;1.60;;;1.50;;
7807;SDS011;3949;49.254;8.894;2023-12-29T13:57:10;1.50;;;1.40;;
7807;SDS011;3949;49.254;8.894;2023-12-29T13:59:37;1.37;;;1.20;;
7807;SDS011;3949;49.254;8.894;2023-12-29T14:02:37;1.77;;;1.67;;
7807;SDS011;3949;49.254;8.894;2023-12-29T14:07:45;2.00;;;1.90;;
7807;SDS011;3949;49.254;8.894;2023-12-29T14:10:13;3.83;;;3.43;;
7807;SDS011;3949;49.254;8.894;2023-12-29T14:12:39;1.80;;;1.70;;
7807;SDS011;3949;49.254;8.894;2023-12-29T14:15:05;1.73;;;1.40;;
7807;SDS011;3949;49.254;8.894;2023-12-29T14:17:31;1.70;;;1.60;;
7807;SDS011;3949;49.254;8.894;2023-12-29T14:19:58;2.47;;;1.47;;
7807;SDS011;3949;49.254;8.894;2023-12-29T14:22:29;1.40;;;1.30;;
7807;SDS011;3949;49.254;8.894;2023-12-29T14:25:02;1.50;;;1.40;;
7807;SDS011;3949;49.254;8.894;2023-12-29T14:27:29;3.53;;;1.90;;
7807;SDS011;3949;49.254;8.894;2023-12-29T14:29:55;2.40;;;2.10;;
7807;SDS011;3949;49.254;8.894;2023-12-29T14:32:22;3.37;;;2.33;;
7807;SDS011;3949;49.254;8.894;2023-12-29T14:34:49;5.77;;;4.07;;
7807;SDS011;3949;49.254;8.894;2023-12-29T14:37:18;1.83;;;1.73;;
7807;SDS011;3949;49.254;8.894;2023-12-29T14:39:51;1.27;;;1.17;;
7807;SDS011;3949;49.254;8.894;2023-12-29T14:42:17;2.00;;;1.80;;
7807;SDS011;3949;49.254;8.894;2023-12-29T14:44:46;1.00;;;1.00;;
7807;SDS011;3949;49.254;8.894;2023-12-29T14:47:13;1.63;;;1.40;;
7807;SDS011;3949;49.254;8.894;2023-12-29T14:49:39;2.87;;;2.10;;
7807;SDS011;3949;49.254;8.894;2023-12-29T14:52:05;2.60;;;1.43;;
7807;SDS011;3949;49.254;8.894;2023-12-29T14:54:31;1.73;;;1.50;;
7807;SDS011;3949;49.254;8.894;2023-12-29T14:56:57;2.20;;;1.33;;
7807;SDS011;3949;49.254;8.894;2023-12-29T14:59:23;1.67;;;1.50;;
7807;SDS011;3949;49.254;8.894;2023-12-29T15:01:50;1.37;;;1.20;;
7807;SDS011;3949;49.254;8.894;2023-12-29T15:04:16;2.97;;;1.83;;
7807;SDS011;3949;49.254;8.894;2023-12-29T15:06:42;1.57;;;1.43;;
7807;SDS011;3949;49.254;8.894;2023-12-29T15:09:08;1.50;;;1.40;;
7807;SDS011;3949;49.254;8.894;2023-12-29T15:11:35;1.17;;;1.07;;
7807;SDS011;3949;49.254;8.894;2023-12-29T15:14:02;1.80;;;1.70;;
7807;SDS011;3949;49.254;8.894;2023-12-29T15:16:28;1.40;;;1.30;;
7807;SDS011;3949;49.254;8.894;2023-12-29T15:18:54;1.40;;;1.30;;
7807;SDS011;3949;49.254;8.894;2023-12-29T15:21:20;1.40;;;1.30;;
7807;SDS011;3949;49.254;8.894;2023-12-29T15:23:46;2.07;;;1.20;;
7807;SDS011;3949;49.254;8.894;2023-12-29T15:26:12;2.07;;;1.90;;
7807;SDS011;3949;49.254;8.894;2023-12-29T15:28:40;1.97;;;1.57;;
7807;SDS011;3949;49.254;8.894;2023-12-29T15:31:07;1.53;;;1.33;;
7807;SDS011;3949;49.254;8.894;2023-12-29T15:33:35;1.77;;;1.67;;
7807;SDS011;3949;49.254;8.894;2023-12-29T15:36:01;2.30;;;2.10;;
7807;SDS011;3949;49.254;8.894;2023-12-29T15:38:28;1.60;;;1.50;;
7807;SDS011;3949;49.254;8.894;2023-12-29T15:40:55;2.53;;;2.33;;
7807;SDS011;3949;49.254;8.894;2023-12-29T15:43:21;1.50;;;1.40;;
7807;SDS011;3949;49.254;8.894;2023-12-29T15:45:49;2.43;;;1.47;;
7807;SDS011;3949;49.254;8.894;2023-12-29T15:48:15;1.93;;;1.70;;
7807;SDS011;3949;49.254;8.894;2023-12-29T15:50:41;1.50;;;1.40;;